createdAt,value
2023-03-08T00:00:22.158Z,16.9
2023-03-08T00:10:23.003Z,17.4
2023-03-08T00:20:23.482Z,16.8
2023-03-08T00:30:23.337Z,16.8
2023-03-08T00:40:23.765Z,16.8
2023-03-08T00:50:23.660Z,16.9
2023-03-08T01:00:23.474Z,16.8
2023-03-08T01:10:23.969Z,16.8
2023-03-08T01:20:24.599Z,16.7
2023-03-08T01:30:24.131Z,16.8
2023-03-08T01:40:25.142Z,16.7
2023-03-08T01:50:25.445Z,16.7
2023-03-08T02:00:26.035Z,16.7
2023-03-08T02:10:25.838Z,16.6
2023-03-08T02:20:26.895Z,16.9
2023-03-08T02:30:28.163Z,16.6
2023-03-08T02:40:30.110Z,16.9
2023-03-08T02:50:30.304Z,16.4
2023-03-08T03:10:09.484Z,16.8
2023-03-08T03:20:09.659Z,16.4
2023-03-08T03:30:10.795Z,16.8
2023-03-08T03:40:11.347Z,16.3
2023-03-08T03:50:13.569Z,16.6
2023-03-08T04:00:14.810Z,16.3
2023-03-08T04:10:16.318Z,16.3
2023-03-08T04:20:19.261Z,16.8
2023-03-08T04:30:21.640Z,16.7
2023-03-08T04:40:22.894Z,16.3
2023-03-08T04:50:24.258Z,16.3
2023-03-08T05:00:25.178Z,16.2
2023-03-08T05:10:26.066Z,16.3
2023-03-08T05:20:26.542Z,16.3
2023-03-08T05:30:26.341Z,16.3
2023-03-08T05:40:27.447Z,16.1
2023-03-08T05:50:28.844Z,16.3
2023-03-08T06:00:29.648Z,16.3
2023-03-08T06:10:31.699Z,16.6
2023-03-08T06:20:47.932Z,16.1
2023-03-08T06:31:05.503Z,16.6
2023-03-08T06:41:22.206Z,16.6
2023-03-08T06:51:40.450Z,18.3
2023-03-08T07:01:58.488Z,19.1
2023-03-08T07:12:16.620Z,17.6
2023-03-08T07:22:31.359Z,18.4
2023-03-08T07:32:44.103Z,18.4
2023-03-08T07:42:58.430Z,19.2
2023-03-08T07:53:14.565Z,18.6
2023-03-08T08:03:28.266Z,18.4
2023-03-08T08:13:43.240Z,18.5
2023-03-08T08:24:00.489Z,19.2
2023-03-08T08:34:18.830Z,18.6
2023-03-08T08:44:33.964Z,19.1
2023-03-08T08:54:47.319Z,19
2023-03-08T09:10:19.360Z,19.4
2023-03-08T09:20:29.737Z,19.6
2023-03-08T09:30:39.400Z,19.1
2023-03-08T09:40:51.185Z,19.5
2023-03-08T09:51:05.523Z,19.1
2023-03-08T10:01:20.213Z,19.8
2023-03-08T10:11:35.969Z,20.3
2023-03-08T10:21:54.460Z,20.1
2023-03-08T10:32:15.069Z,20.6
2023-03-08T10:42:35.558Z,20.3
2023-03-08T10:52:55.774Z,20.1
2023-03-08T11:03:15.125Z,19.7
2023-03-08T11:13:34.003Z,20.2
2023-03-08T11:23:52.977Z,19.4
2023-03-08T11:34:11.381Z,20.1
2023-03-08T11:44:30.006Z,19.9
2023-03-08T11:54:47.063Z,19.9
2023-03-08T12:05:06.401Z,19.2
2023-03-08T12:15:24.261Z,19.6
2023-03-08T12:25:42.250Z,20.2
2023-03-08T12:35:54.882Z,19.8
2023-03-08T12:46:07.397Z,20.1
2023-03-08T12:56:16.953Z,20.1
2023-03-08T13:06:26.577Z,20.1
2023-03-08T13:16:31.302Z,20.4
2023-03-08T13:26:49.291Z,19.9
2023-03-08T13:36:41.594Z,20
2023-03-08T13:46:45.635Z,19.6
2023-03-08T13:56:48.930Z,19.9
2023-03-08T14:06:52.010Z,19.8
2023-03-08T14:16:55.075Z,19.8
2023-03-08T14:26:58.347Z,19.6
2023-03-08T14:37:01.498Z,19.7
2023-03-08T14:47:03.697Z,19.5
2023-03-08T14:57:02.974Z,19.3
2023-03-08T15:10:08.402Z,19.2
2023-03-08T15:20:07.425Z,19.3
2023-03-08T15:30:09.453Z,19.7
2023-03-08T15:40:10.670Z,19.2
2023-03-08T15:50:11.221Z,19.3
2023-03-08T16:00:12.983Z,19.4
2023-03-08T16:10:16.774Z,19.4
2023-03-08T16:20:21.270Z,19.2
2023-03-08T16:30:25.855Z,19.3
2023-03-08T16:40:30.445Z,18.9
2023-03-08T16:50:34.926Z,19.2
2023-03-08T17:00:38.686Z,19.2
2023-03-08T17:10:41.982Z,18.9
2023-03-08T17:20:45.229Z,19.1
2023-03-08T17:30:48.403Z,18.9
2023-03-08T17:40:51.901Z,18.9
2023-03-08T17:50:54.966Z,18.9
2023-03-08T18:00:58.224Z,18.8
2023-03-08T18:11:01.405Z,18.8
2023-03-08T18:21:12.967Z,18.6
2023-03-08T18:31:08.094Z,18.8
2023-03-08T18:41:11.152Z,18.8
2023-03-08T18:51:16.484Z,18.6
2023-03-08T19:01:17.858Z,18.6
2023-03-08T19:11:21.024Z,18.4
2023-03-08T19:21:24.252Z,18.8
2023-03-08T19:31:27.538Z,18.4
2023-03-08T19:41:30.800Z,18.4
2023-03-08T19:51:33.966Z,18.5
2023-03-08T20:01:37.308Z,18.3
2023-03-08T20:11:40.677Z,18.4
2023-03-08T20:21:43.940Z,18.3
2023-03-08T20:31:47.109Z,18.3
2023-03-08T20:41:50.499Z,18.2
2023-03-08T20:51:53.877Z,18.1
2023-03-08T21:10:11.864Z,18.3
2023-03-08T21:20:15.102Z,18.3
2023-03-08T21:30:18.402Z,18.3
2023-03-08T21:40:21.694Z,18.3
2023-03-08T21:50:24.919Z,18.1
2023-03-08T22:00:28.407Z,18.3
2023-03-08T22:10:33.103Z,18.1
2023-03-08T22:20:37.699Z,18.4
2023-03-08T22:30:42.155Z,18.2
2023-03-08T22:40:46.836Z,18.3
2023-03-08T22:51:01.561Z,18.4
2023-03-08T23:00:55.340Z,18
2023-03-08T23:10:58.602Z,18.2
2023-03-08T23:21:01.921Z,18.1
2023-03-08T23:31:05.276Z,18.3
2023-03-08T23:41:08.418Z,18.3
2023-03-08T23:51:11.760Z,18.1
